CZUM/ZUM METAR and TAF weather

Enter ICAO airport designator
Station Type Date Time Source
CZUM METAR 2018/01/22 20:00 UTC NOAA

CZUM 222000Z AUTO 27011G18KT 9SM CLR M19/M23 A3001 RMK SLP216


Station Type Date Time Source
CZUM Decoded METAR 2018/01/22 20:00 UTC NOAA

Churchill Falls, Nfld., Canada (CZUM) 53-33N 064-06W 440M
Jan 22, 2018 - 03:00 PM EST / 2018.01.22 2000 UTC
Wind: from the W (270 degrees) at 13 MPH (11 KT) gusting to 21 MPH (18 KT):0
Visibility: 9 mile(s):0
Sky conditions: clear
Temperature: -2 F (-19 C)
Windchill: -20 F (-29 C):2
Dew Point: -9 F (-23 C)
Relative Humidity: 70%
Pressure (altimeter): 30.01 in. Hg (1016 hPa)
ob: CZUM 222000Z AUTO 27011G18KT 9SM CLR M19/M23 A3001 RMK SLP216
cycle: 20

Station Type Date Time Source
CZUM TAF 2018/01/22 20:42 UTC NOAA

TAF TAF CZUM 221940Z 2220/2308 FCST NOT AVBL DUE NO OBS
RMK FCST BASED ON AUTO OBS. NXT FCST BY 230200Z


Example: see airport list